Time;durP1;ratioP1;P1;durP2;ratioP2;P2;SDS_P1;SDS_P2;PMS_P1;PMS_P2;Temp;Humidity;BMP_temperature;BMP_pressure;BME280_temperature;BME280_humidity;BME280_pressure;Samples;Min_cycle;Max_cycle;Signal;HPM_P1;HPM_P2
2021/08/10 00:01:44;;;;;;;1.92;1.20;;;22.20;99.90;;;;;;5030648;28;20037;-67
2021/08/10 00:04:10;;;;;;;2.15;1.40;;;22.20;99.90;;;;;;5013183;28;20030;-67
2021/08/10 00:06:36;;;;;;;2.67;1.15;;;22.20;99.90;;;;;;5031219;28;20371;-67
2021/08/10 00:09:01;;;;;;;2.05;0.95;;;22.20;99.90;;;;;;5031426;28;20117;-65
2021/08/10 00:11:27;;;;;;;3.00;1.08;;;22.20;99.90;;;;;;5031597;28;20500;-66
2021/08/10 00:13:52;;;;;;;3.35;1.50;;;22.20;99.90;;;;;;5021198;28;20109;-64
2021/08/10 00:16:18;;;;;;;2.33;1.13;;;22.20;99.90;;;;;;5011864;28;20026;-66
2021/08/10 00:18:44;;;;;;;2.00;1.33;;;22.20;99.90;;;;;;5030130;28;20091;-65
2021/08/10 00:21:09;;;;;;;1.92;1.23;;;22.20;99.90;;;;;;5031444;28;20022;-66
2021/08/10 00:23:35;;;;;;;1.83;1.05;;;22.20;99.90;;;;;;5030423;28;20029;-62
2021/08/10 00:26:00;;;;;;;2.00;1.25;;;22.20;99.90;;;;;;5013487;28;20044;-62
2021/08/10 00:28:26;;;;;;;2.92;1.45;;;22.20;99.90;;;;;;5031491;28;20040;-64
2021/08/10 00:30:52;;;;;;;1.67;1.13;;;22.20;99.90;;;;;;5031218;28;20025;-65
2021/08/10 00:33:17;;;;;;;2.60;1.20;;;22.20;99.90;;;;;;5030796;28;20389;-66
2021/08/10 00:35:43;;;;;;;2.28;1.10;;;22.20;99.90;;;;;;5031115;28;20079;-66
2021/08/10 00:38:09;;;;;;;2.15;1.27;;;22.10;99.90;;;;;;5031107;28;20038;-64
2021/08/10 00:40:36;;;;;;;2.47;1.10;;;22.10;99.90;;;;;;5032477;28;20377;-62
2021/08/10 00:43:02;;;;;;;2.20;1.30;;;22.10;99.90;;;;;;5032111;28;20110;-65
2021/08/10 00:45:27;;;;;;;1.30;0.90;;;22.10;99.90;;;;;;5015739;28;20053;-64
2021/08/10 00:47:53;;;;;;;2.17;1.40;;;22.10;99.90;;;;;;5022504;28;20412;-62
2021/08/10 00:50:19;;;;;;;1.42;1.10;;;22.10;99.90;;;;;;5035230;28;20037;-62
2021/08/10 00:52:44;;;;;;;3.60;1.27;;;22.10;99.90;;;;;;5034492;28;20028;-65
2021/08/10 00:55:11;;;;;;;5.63;1.67;;;22.10;99.90;;;;;;5035209;28;20021;-64
2021/08/10 00:57:36;;;;;;;2.90;1.35;;;22.10;99.90;;;;;;5034634;28;20436;-62
2021/08/10 01:00:04;;;;;;;2.03;1.42;;;22.10;99.90;;;;;;5034137;28;20033;-63
2021/08/10 01:02:30;;;;;;;2.47;1.20;;;22.10;99.90;;;;;;5034487;28;20405;-62
2021/08/10 01:04:56;;;;;;;1.42;1.10;;;22.10;99.90;;;;;;5034321;28;20056;-67
2021/08/10 01:07:34;;;;;;;2.25;1.40;;;22.10;99.90;;;;;;5034644;28;20061;-67
2021/08/10 01:10:11;;;;;;;2.53;1.00;;;22.10;99.90;;;;;;5035152;28;20044;-66
2021/08/10 01:13:07;;;;;;;3.42;1.60;;;22.10;99.90;;;;;;5033813;28;20026;-65
2021/08/10 01:15:45;;;;;;;6.55;1.40;;;22.10;99.90;;;;;;5014837;28;20109;-66
2021/08/10 01:18:19;;;;;;;1.95;1.33;;;22.10;99.90;;;;;;5014768;28;20088;-65
2021/08/10 01:20:57;;;;;;;2.58;1.40;;;22.10;99.90;;;;;;5014809;28;20117;-66
2021/08/10 01:23:28;;;;;;;2.00;1.20;;;22.10;99.90;;;;;;5028666;28;20053;-66
2021/08/10 01:26:08;;;;;;;2.20;1.25;;;22.00;99.90;;;;;;5033600;28;20029;-67
2021/08/10 01:28:58;;;;;;;1.80;1.30;;;22.00;99.90;;;;;;5033986;28;20083;-67
2021/08/10 01:31:36;;;;;;;1.73;1.25;;;22.00;99.90;;;;;;5034236;28;20116;-67
2021/08/10 01:34:17;;;;;;;3.22;1.23;;;22.00;99.90;;;;;;5033748;28;20092;-66
2021/08/10 01:36:44;;;;;;;2.53;1.30;;;22.00;99.90;;;;;;5034192;28;20496;-67
2021/08/10 01:39:12;;;;;;;1.70;1.25;;;22.00;99.90;;;;;;5033883;28;20033;-67
2021/08/10 01:41:39;;;;;;;3.42;1.30;;;22.00;99.90;;;;;;5033545;28;20029;-67
2021/08/10 01:44:06;;;;;;;1.90;1.30;;;22.00;99.90;;;;;;5027113;28;20054;-66
2021/08/10 01:46:32;;;;;;;2.42;1.30;;;22.00;99.90;;;;;;5014069;28;20109;-64
2021/08/10 01:48:59;;;;;;;1.63;1.25;;;22.00;99.90;;;;;;5014533;28;20033;-66
2021/08/10 01:51:27;;;;;;;3.55;1.50;;;22.00;99.90;;;;;;5015111;28;20026;-66
2021/08/10 01:53:57;;;;;;;3.85;1.38;;;22.00;99.90;;;;;;5032862;28;20049;-67
2021/08/10 01:56:23;;;;;;;2.58;1.30;;;22.00;99.90;;;;;;5033954;28;20068;-68
2021/08/10 01:58:49;;;;;;;1.88;1.38;;;22.00;99.90;;;;;;5033877;28;20034;-68
2021/08/10 02:01:16;;;;;;;1.73;1.23;;;21.90;99.90;;;;;;5033920;28;20025;-66
2021/08/10 02:03:44;;;;;;;1.67;1.10;;;21.90;99.90;;;;;;5032820;28;20129;-68
2021/08/10 02:06:17;;;;;;;3.00;1.30;;;21.90;99.90;;;;;;5032905;28;20036;-67
2021/08/10 02:08:43;;;;;;;2.17;1.23;;;21.90;99.90;;;;;;5033655;28;20018;-67
2021/08/10 02:11:11;;;;;;;3.15;1.30;;;21.90;99.90;;;;;;5033092;28;20041;-68
2021/08/10 02:13:37;;;;;;;2.13;1.20;;;21.90;99.90;;;;;;5030181;28;20108;-67
2021/08/10 02:16:05;;;;;;;2.83;1.42;;;21.90;99.90;;;;;;5013912;28;20117;-66
2021/08/10 02:18:31;;;;;;;1.75;1.10;;;22.00;99.90;;;;;;5025086;28;20116;-62
2021/08/10 02:21:03;;;;;;;2.55;1.52;;;21.90;99.90;;;;;;5033796;28;20068;-66
2021/08/10 02:23:32;;;;;;;2.05;1.27;;;22.00;99.90;;;;;;5033415;28;20378;-66
2021/08/10 02:25:58;;;;;;;2.38;1.27;;;21.90;99.90;;;;;;5033593;28;20076;-67
2021/08/10 02:28:27;;;;;;;1.80;1.30;;;21.90;99.90;;;;;;5033308;28;20393;-67
2021/08/10 02:30:54;;;;;;;2.70;1.48;;;21.90;99.90;;;;;;5033226;28;20227;-64
2021/08/10 02:33:24;;;;;;;1.70;1.30;;;21.90;99.90;;;;;;5033337;28;20022;-65
2021/08/10 02:35:57;;;;;;;1.92;1.30;;;21.90;99.90;;;;;;5032500;28;20033;-65
2021/08/10 02:38:25;;;;;;;1.77;1.40;;;21.90;99.90;;;;;;5032876;28;20567;-66
2021/08/10 02:40:52;;;;;;;2.17;1.40;;;21.90;99.90;;;;;;5032506;28;20021;-66
2021/08/10 02:43:21;;;;;;;4.28;1.42;;;21.90;99.90;;;;;;5032351;28;20389;-66
2021/08/10 02:45:47;;;;;;;1.80;1.25;;;21.90;99.90;;;;;;5013117;28;20033;-67
2021/08/10 02:48:12;;;;;;;2.03;1.38;;;21.90;99.90;;;;;;5013172;28;20029;-67
2021/08/10 02:50:38;;;;;;;2.30;1.50;;;21.90;99.90;;;;;;5012956;28;20029;-67
2021/08/10 02:53:05;;;;;;;1.77;1.38;;;21.90;99.90;;;;;;5028497;28;20087;-67
2021/08/10 02:55:33;;;;;;;3.20;1.65;;;21.90;99.90;;;;;;5032722;28;20417;-61
2021/08/10 02:58:19;;;;;;;2.38;1.30;;;21.90;99.90;;;;;;5033035;28;20029;-67
2021/08/10 03:01:09;;;;;;;1.58;1.00;;;21.90;99.90;;;;;;5032157;28;20025;-68
2021/08/10 03:03:36;;;;;;;2.20;1.40;;;21.90;99.90;;;;;;5030437;28;20040;-68
2021/08/10 03:06:04;;;;;;;2.88;1.40;;;21.90;99.90;;;;;;5031625;28;20033;-67
2021/08/10 03:08:35;;;;;;;3.25;1.05;;;21.90;99.90;;;;;;5032546;28;20034;-68
2021/08/10 03:11:03;;;;;;;2.35;1.15;;;21.90;99.90;;;;;;5032179;28;20108;-62
2021/08/10 03:13:36;;;;;;;1.80;1.13;;;21.90;99.90;;;;;;5030617;28;20029;-68
2021/08/10 03:16:05;;;;;;;1.60;1.25;;;21.90;99.90;;;;;;5012787;28;20026;-66
2021/08/10 03:18:36;;;;;;;2.08;1.40;;;21.90;99.90;;;;;;5012657;28;20073;-62
2021/08/10 03:21:04;;;;;;;3.17;1.50;;;21.90;99.90;;;;;;5012630;28;20018;-62
2021/08/10 03:23:33;;;;;;;2.65;1.40;;;21.90;99.90;;;;;;5028808;28;20030;-64
2021/08/10 03:25:59;;;;;;;3.70;1.30;;;21.90;99.90;;;;;;5031511;28;20034;-63
2021/08/10 03:28:27;;;;;;;1.95;1.30;;;21.90;99.90;;;;;;5031991;28;20441;-65
2021/08/10 03:30:55;;;;;;;2.50;1.40;;;21.80;99.90;;;;;;5012413;28;20072;-64
2021/08/10 03:33:30;;;;;;;2.30;1.33;;;21.80;99.90;;;;;;5030230;28;20056;-67
2021/08/10 03:35:58;;;;;;;2.28;1.50;;;21.80;99.90;;;;;;5031876;28;20022;-66
2021/08/10 03:38:25;;;;;;;2.58;1.30;;;21.80;99.90;;;;;;5031484;28;20038;-62
2021/08/10 03:40:52;;;;;;;2.05;1.30;;;21.80;99.90;;;;;;5031832;28;20029;-62
2021/08/10 03:43:18;;;;;;;1.98;1.08;;;21.80;99.90;;;;;;5031618;28;20041;-64
2021/08/10 03:45:45;;;;;;;2.00;1.30;;;21.80;99.90;;;;;;5012359;28;20022;-65
2021/08/10 03:48:11;;;;;;;2.25;1.15;;;21.80;99.90;;;;;;5011812;28;20030;-62
2021/08/10 03:50:39;;;;;;;2.80;1.27;;;21.80;99.90;;;;;;5028277;28;20034;-62
2021/08/10 03:53:05;;;;;;;2.17;1.38;;;21.80;99.90;;;;;;5031007;28;20025;-61
2021/08/10 03:55:32;;;;;;;2.53;1.30;;;21.80;99.90;;;;;;5032170;28;20112;-62
2021/08/10 03:57:59;;;;;;;2.30;1.30;;;21.80;99.90;;;;;;5031898;28;20033;-63
2021/08/10 04:00:26;;;;;;;2.33;1.42;;;21.80;99.90;;;;;;5031986;28;20037;-62
2021/08/10 04:02:53;;;;;;;2.85;1.27;;;21.80;99.90;;;;;;5031234;28;20239;-65
2021/08/10 04:05:19;;;;;;;2.13;1.50;;;21.80;99.90;;;;;;5031171;28;20400;-65
2021/08/10 04:07:45;;;;;;;2.05;1.38;;;21.70;99.90;;;;;;5031459;28;20032;-66
2021/08/10 04:10:11;;;;;;;2.80;1.40;;;21.70;99.90;;;;;;5031296;28;20029;-68
2021/08/10 04:12:37;;;;;;;2.20;1.30;;;21.80;99.90;;;;;;5031228;28;20030;-67
2021/08/10 04:15:06;;;;;;;3.97;1.10;;;21.80;99.90;;;;;;5016447;28;20036;-67
2021/08/10 04:17:36;;;;;;;1.98;1.48;;;21.80;99.90;;;;;;5015386;28;20438;-66
2021/08/10 04:20:03;;;;;;;1.95;1.15;;;21.80;99.90;;;;;;5031456;28;20366;-63
2021/08/10 04:22:28;;;;;;;2.47;1.45;;;21.80;99.90;;;;;;5031436;28;20044;-68
2021/08/10 04:24:54;;;;;;;2.13;1.33;;;21.70;99.90;;;;;;5030903;28;20026;-67
2021/08/10 04:27:20;;;;;;;2.17;1.20;;;21.70;99.90;;;;;;5031183;28;20030;-68
2021/08/10 04:29:45;;;;;;;2.30;1.20;;;21.80;99.90;;;;;;5013552;28;20049;-67
2021/08/10 04:32:11;;;;;;;2.58;1.33;;;21.70;99.90;;;;;;5030910;28;20029;-67
2021/08/10 04:34:37;;;;;;;1.98;1.23;;;21.80;99.90;;;;;;5031524;28;20048;-67
2021/08/10 04:37:03;;;;;;;2.42;1.33;;;21.80;99.90;;;;;;5030783;28;20037;-67
2021/08/10 04:39:29;;;;;;;1.73;1.15;;;21.70;99.90;;;;;;5031469;28;20033;-66
2021/08/10 04:41:55;;;;;;;2.63;1.23;;;21.70;99.90;;;;;;5030456;28;20380;-67
2021/08/10 04:44:22;;;;;;;2.45;1.30;;;21.70;99.90;;;;;;5022772;28;20021;-67
2021/08/10 04:46:48;;;;;;;3.63;1.38;;;21.70;99.90;;;;;;5011450;28;20545;-67
2021/08/10 04:49:14;;;;;;;2.20;1.45;;;21.70;99.90;;;;;;5030201;28;20486;-66
2021/08/10 04:51:40;;;;;;;1.73;1.20;;;21.70;99.90;;;;;;5031035;28;20116;-65
2021/08/10 04:54:05;;;;;;;3.63;1.27;;;21.70;99.90;;;;;;5030293;28;20267;-67
2021/08/10 04:56:31;;;;;;;2.97;1.20;;;21.70;99.90;;;;;;5031279;28;20038;-66
2021/08/10 04:58:57;;;;;;;10.88;1.60;;;21.70;99.90;;;;;;5030854;28;20042;-67
2021/08/10 05:01:23;;;;;;;7.47;1.40;;;21.80;99.90;;;;;;5030370;28;20030;-63
2021/08/10 05:03:49;;;;;;;2.38;1.30;;;21.80;99.90;;;;;;5030866;28;20037;-63
2021/08/10 05:06:15;;;;;;;3.17;1.02;;;21.80;99.90;;;;;;5030274;28;20037;-65
2021/08/10 05:08:40;;;;;;;3.67;1.63;;;21.80;99.90;;;;;;5030518;28;20033;-65
2021/08/10 05:11:10;;;;;;;5.07;1.20;;;21.70;99.90;;;;;;5030526;28;20029;-64
2021/08/10 05:13:37;;;;;;;4.85;1.40;;;21.70;99.90;;;;;;5028476;28;20049;-66
2021/08/10 05:16:02;;;;;;;1.95;1.30;;;21.60;99.90;;;;;;5011266;28;20074;-64
2021/08/10 05:18:28;;;;;;;2.20;1.30;;;21.70;99.90;;;;;;5022204;28;20065;-66
2021/08/10 05:20:53;;;;;;;2.70;1.50;;;21.70;99.90;;;;;;5030424;28;20525;-64
2021/08/10 05:23:19;;;;;;;2.45;1.30;;;21.70;99.90;;;;;;5030497;28;20033;-65
2021/08/10 05:25:45;;;;;;;2.70;1.45;;;21.70;99.90;;;;;;5030983;28;20072;-65
2021/08/10 05:28:10;;;;;;;2.35;1.25;;;21.60;99.90;;;;;;5034199;28;20029;-66
2021/08/10 05:30:36;;;;;;;2.75;1.52;;;21.60;99.90;;;;;;5034607;28;20120;-65
2021/08/10 05:33:02;;;;;;;3.55;1.42;;;21.60;99.90;;;;;;5033933;28;20041;-67
2021/08/10 05:35:27;;;;;;;2.10;1.42;;;21.60;99.90;;;;;;5025723;28;20509;-66
2021/08/10 05:37:53;;;;;;;1.63;1.27;;;21.60;99.90;;;;;;5033895;28;20484;-63
2021/08/10 05:40:20;;;;;;;3.42;1.10;;;21.60;99.90;;;;;;5033584;28;20474;-64
2021/08/10 05:42:46;;;;;;;1.95;1.20;;;21.60;99.90;;;;;;5034134;28;20041;-66
2021/08/10 05:45:12;;;;;;;1.98;1.27;;;21.50;99.90;;;;;;5030381;28;20386;-65
2021/08/10 05:47:37;;;;;;;1.70;1.35;;;21.50;99.90;;;;;;5023274;28;20028;-68
2021/08/10 05:50:03;;;;;;;2.08;1.30;;;21.60;99.90;;;;;;5022879;28;20036;-69
2021/08/10 05:52:30;;;;;;;4.05;1.40;;;21.60;99.90;;;;;;5024184;28;20033;-66
2021/08/10 05:54:56;;;;;;;3.28;1.60;;;21.60;99.90;;;;;;5021744;28;20152;-69
2021/08/10 05:57:22;;;;;;;2.80;1.35;;;21.60;99.90;;;;;;5024185;28;20112;-65
2021/08/10 05:59:48;;;;;;;2.70;1.50;;;21.70;99.90;;;;;;5023561;28;20030;-63
2021/08/10 06:02:13;;;;;;;4.20;1.40;;;21.70;99.90;;;;;;5023005;28;20022;-67
2021/08/10 06:04:39;;;;;;;2.00;1.35;;;21.70;99.90;;;;;;5022040;28;20489;-66
2021/08/10 06:07:06;;;;;;;2.80;1.55;;;21.90;99.90;;;;;;5022949;28;20171;-65
2021/08/10 06:09:32;;;;;;;2.75;1.30;;;22.00;99.90;;;;;;5023994;28;20033;-64
2021/08/10 06:11:58;;;;;;;2.33;1.20;;;22.00;99.90;;;;;;5022196;28;20022;-64
2021/08/10 06:14:24;;;;;;;3.10;1.38;;;22.00;99.90;;;;;;5025475;28;20022;-66
2021/08/10 06:16:50;;;;;;;3.83;1.45;;;21.80;99.90;;;;;;5024793;28;20032;-67
2021/08/10 06:19:16;;;;;;;4.38;1.63;;;21.70;99.90;;;;;;5015754;28;20033;-70
2021/08/10 06:21:42;;;;;;;3.83;2.03;;;21.60;99.90;;;;;;5033647;28;20029;-61
2021/08/10 06:24:07;;;;;;;8.27;2.00;;;21.60;99.90;;;;;;5032485;28;20030;-61
2021/08/10 06:26:33;;;;;;;3.72;1.85;;;21.60;99.90;;;;;;5033658;28;20060;-68
2021/08/10 06:28:59;;;;;;;6.05;1.70;;;21.50;99.90;;;;;;5033266;28;20064;-66
2021/08/10 06:31:25;;;;;;;4.90;2.10;;;21.40;99.90;;;;;;5032607;28;20028;-65
2021/08/10 06:33:51;;;;;;;3.42;1.90;;;21.40;99.90;;;;;;5031495;28;20080;-62
2021/08/10 06:36:16;;;;;;;6.30;2.40;;;21.50;99.90;;;;;;5032931;28;20041;-68
2021/08/10 06:38:42;;;;;;;6.75;3.10;;;21.50;99.90;;;;;;5032657;28;20064;-63
2021/08/10 06:41:08;;;;;;;6.95;2.88;;;21.60;99.90;;;;;;5032695;28;20533;-60
2021/08/10 06:43:33;;;;;;;8.98;3.00;;;21.60;99.90;;;;;;5033188;28;20029;-64
2021/08/10 06:45:59;;;;;;;5.75;2.90;;;21.60;99.90;;;;;;5032415;28;20414;-60
2021/08/10 06:48:25;;;;;;;8.68;3.28;;;21.60;99.90;;;;;;5015665;28;20061;-65
2021/08/10 06:50:50;;;;;;;7.88;3.15;;;21.60;99.90;;;;;;5013216;28;20113;-60
2021/08/10 06:53:17;;;;;;;9.23;3.38;;;21.60;99.90;;;;;;5017497;28;20032;-64
2021/08/10 06:55:44;;;;;;;7.60;2.80;;;21.60;99.90;;;;;;5032507;28;20045;-68
2021/08/10 06:58:10;;;;;;;9.23;3.10;;;21.50;99.90;;;;;;5032506;28;20048;-63
2021/08/10 07:00:36;;;;;;;7.05;2.90;;;21.50;99.90;;;;;;5033260;28;20025;-65
2021/08/10 07:03:02;;;;;;;9.15;2.80;;;21.50;99.90;;;;;;5031914;28;20489;-68
2021/08/10 07:05:28;;;;;;;4.88;2.60;;;21.50;99.90;;;;;;5032446;28;20025;-67
2021/08/10 07:07:54;;;;;;;6.07;2.35;;;21.60;99.90;;;;;;5031440;28;20021;-64
2021/08/10 07:10:19;;;;;;;6.45;2.40;;;21.60;99.90;;;;;;5024331;28;20041;-62
2021/08/10 07:12:45;;;;;;;3.70;2.20;;;21.60;99.90;;;;;;5016111;28;20028;-64
2021/08/10 07:15:11;;;;;;;7.03;2.58;;;21.60;99.90;;;;;;5021686;28;20077;-64
2021/08/10 07:17:36;;;;;;;6.05;2.75;;;21.60;99.90;;;;;;5025616;28;20033;-65
2021/08/10 07:20:03;;;;;;;4.88;2.25;;;21.60;99.90;;;;;;5014486;28;20049;-67
2021/08/10 07:22:28;;;;;;;3.85;2.30;;;21.60;99.90;;;;;;5032473;28;20079;-68
2021/08/10 07:24:54;;;;;;;7.05;2.70;;;21.60;99.90;;;;;;5031683;28;20030;-66
2021/08/10 07:27:19;;;;;;;5.22;2.50;;;21.60;99.90;;;;;;5026544;28;20040;-63
2021/08/10 07:29:45;;;;;;;7.03;2.60;;;21.70;99.90;;;;;;5022283;28;20056;-70
2021/08/10 07:32:11;;;;;;;5.47;2.47;;;21.70;99.90;;;;;;5019555;28;20434;-65
2021/08/10 07:34:37;;;;;;;4.72;2.30;;;21.70;99.90;;;;;;5020493;28;20029;-68
2021/08/10 07:37:02;;;;;;;4.88;2.15;;;21.80;99.90;;;;;;5016608;28;20034;-65
2021/08/10 07:39:28;;;;;;;4.78;1.90;;;21.90;99.90;;;;;;5032042;28;20485;-69
2021/08/10 07:41:54;;;;;;;4.22;2.05;;;22.10;99.90;;;;;;5031929;28;20025;-68
2021/08/10 07:44:19;;;;;;;4.47;2.08;;;22.20;99.90;;;;;;5031202;28;20033;-65
2021/08/10 07:46:45;;;;;;;4.63;2.13;;;22.10;99.90;;;;;;5023183;28;20553;-71
2021/08/10 07:49:11;;;;;;;5.20;2.20;;;22.30;99.90;;;;;;5023815;28;20033;-70
2021/08/10 07:51:36;;;;;;;3.33;2.17;;;22.40;99.90;;;;;;5027672;28;20029;-68
2021/08/10 07:54:02;;;;;;;5.10;2.20;;;22.20;99.90;;;;;;5029998;28;20152;-74
2021/08/10 07:56:27;;;;;;;3.05;1.92;;;22.20;99.90;;;;;;5022970;28;20082;-73
2021/08/10 07:58:53;;;;;;;4.75;2.22;;;22.20;99.90;;;;;;5028922;28;20042;-73
2021/08/10 08:01:19;;;;;;;4.13;2.20;;;22.10;99.90;;;;;;5014871;28;20033;-69
2021/08/10 08:03:44;;;;;;;3.28;2.08;;;22.20;99.90;;;;;;5026862;28;20025;-68
2021/08/10 08:06:10;;;;;;;4.63;2.10;;;22.40;99.90;;;;;;5043902;28;20332;-72
2021/08/10 08:08:38;;;;;;;4.07;2.00;;;22.50;99.90;;;;;;5039348;28;20022;-72
2021/08/10 08:11:04;;;;;;;5.82;1.85;;;22.70;99.90;;;;;;5031455;28;20025;-74
2021/08/10 08:13:29;;;;;;;2.97;1.92;;;22.50;99.90;;;;;;5031621;28;20032;-73
2021/08/10 08:15:56;;;;;;;4.95;1.85;;;22.60;99.90;;;;;;5030925;28;20026;-75
2021/08/10 08:18:22;;;;;;;3.35;1.92;;;22.50;99.90;;;;;;5031300;28;20109;-72
2021/08/10 08:20:49;;;;;;;4.28;2.15;;;22.50;99.90;;;;;;5031459;28;20026;-70
2021/08/10 08:23:15;;;;;;;3.25;2.10;;;22.90;99.90;;;;;;5025573;28;20110;-69
2021/08/10 08:25:41;;;;;;;5.38;2.00;;;22.90;99.90;;;;;;5030951;28;20025;-75
2021/08/10 08:28:12;;;;;;;4.45;1.80;;;22.90;99.90;;;;;;5031349;28;20037;-75
2021/08/10 08:30:39;;;;;;;3.60;1.85;;;22.90;99.90;;;;;;5023288;28;20390;-76
2021/08/10 08:33:07;;;;;;;2.97;1.77;;;23.00;99.90;;;;;;5014332;28;20033;-77
2021/08/10 08:35:33;;;;;;;4.03;1.92;;;23.10;99.90;;;;;;5030611;28;20830;-75
2021/08/10 08:37:59;;;;;;;2.10;1.50;;;23.20;99.90;;;;;;5030880;28;20110;-74
2021/08/10 08:40:25;;;;;;;2.58;1.88;;;23.20;99.90;;;;;;5029443;28;20381;-77
2021/08/10 08:42:51;;;;;;;3.05;1.85;;;23.10;99.90;;;;;;5019254;28;20617;-70
2021/08/10 08:45:16;;;;;;;5.05;1.90;;;23.20;99.90;;;;;;5030601;28;20118;-74
2021/08/10 08:47:50;;;;;;;3.83;1.63;;;23.30;99.90;;;;;;5031661;28;20065;-75
2021/08/10 08:50:18;;;;;;;3.42;2.00;;;23.20;99.90;;;;;;5030648;28;20040;-72
2021/08/10 08:52:48;;;;;;;3.13;1.90;;;23.20;99.90;;;;;;5011751;28;20042;-66
2021/08/10 08:55:19;;;;;;;4.50;1.88;;;23.50;99.90;;;;;;5022963;28;20053;-72
2021/08/10 08:57:45;;;;;;;2.42;1.50;;;23.60;99.90;;;;;;5030976;28;20247;-70
2021/08/10 09:00:15;;;;;;;3.78;2.10;;;23.40;99.90;;;;;;5030937;28;20131;-73
2021/08/10 09:02:41;;;;;;;3.78;1.92;;;23.20;99.90;;;;;;5034971;28;20508;-75
2021/08/10 09:05:08;;;;;;;3.17;1.95;;;23.10;99.90;;;;;;5034663;28;20061;-73
2021/08/10 09:07:34;;;;;;;3.60;1.98;;;23.00;99.90;;;;;;5034561;28;20052;-73
2021/08/10 09:10:11;;;;;;;3.88;1.80;;;23.00;99.90;;;;;;5034704;28;20037;-74
2021/08/10 09:12:47;;;;;;;3.40;1.80;;;23.00;99.90;;;;;;5034928;28;20026;-73
2021/08/10 09:15:27;;;;;;;2.55;1.60;;;23.00;99.90;;;;;;5017027;28;20478;-71
2021/08/10 09:17:53;;;;;;;3.47;1.73;;;23.00;99.90;;;;;;5034449;28;20176;-74
2021/08/10 09:20:21;;;;;;;3.88;1.77;;;23.00;99.90;;;;;;5034046;28;20112;-74
2021/08/10 09:22:50;;;;;;;3.60;1.90;;;23.00;99.90;;;;;;5033572;28;20021;-74
2021/08/10 09:25:16;;;;;;;4.03;1.92;;;23.00;99.90;;;;;;5032704;28;20075;-67
2021/08/10 09:27:43;;;;;;;2.65;1.70;;;23.10;99.90;;;;;;5032795;28;20034;-73
2021/08/10 09:30:10;;;;;;;3.70;1.98;;;23.20;99.90;;;;;;5034354;28;20022;-73
2021/08/10 09:32:55;;;;;;;1.85;1.42;;;23.30;99.90;;;;;;5034625;28;20578;-80
2021/08/10 09:35:23;;;;;;;7.45;1.98;;;23.40;99.90;;;;;;5034598;28;20495;-70
2021/08/10 09:38:02;;;;;;;3.05;1.75;;;23.40;99.90;;;;;;5034270;28;20493;-67
2021/08/10 09:40:30;;;;;;;4.80;1.98;;;23.50;99.90;;;;;;5034399;28;20056;-72
2021/08/10 09:43:32;;;;;;;6.50;2.10;;;23.50;99.90;;;;;;5030504;28;20029;-67
2021/08/10 09:46:17;;;;;;;4.57;2.00;;;23.60;99.90;;;;;;5014480;28;20392;-67
2021/08/10 09:48:49;;;;;;;5.65;2.20;;;23.50;99.90;;;;;;5025169;28;20033;-67
2021/08/10 09:51:17;;;;;;;4.85;2.42;;;23.70;99.90;;;;;;5018244;28;20421;-66
2021/08/10 09:53:53;;;;;;;4.10;2.45;;;23.80;99.90;;;;;;5014603;28;20045;-68
2021/08/10 09:56:18;;;;;;;3.55;1.95;;;23.80;99.90;;;;;;5015384;28;20030;-68
2021/08/10 09:58:58;;;;;;;2.97;2.10;;;23.80;99.90;;;;;;5014461;28;20084;-68
2021/08/10 10:01:36;;;;;;;4.00;2.30;;;23.80;99.90;;;;;;5014289;28;20072;-67
2021/08/10 10:04:23;;;;;;;3.30;2.10;;;23.80;99.90;;;;;;5013816;28;20466;-66
2021/08/10 10:06:54;;;;;;;3.88;1.90;;;23.80;99.90;;;;;;5016725;28;20029;-68
2021/08/10 10:09:22;;;;;;;5.78;2.22;;;23.70;99.90;;;;;;5014180;28;20075;-68
2021/08/10 10:11:50;;;;;;;3.53;1.88;;;23.80;99.90;;;;;;5014387;28;20065;-68
2021/08/10 10:14:16;;;;;;;4.22;2.10;;;23.80;99.90;;;;;;5013434;28;20382;-67
2021/08/10 10:16:51;;;;;;;3.33;2.00;;;23.80;99.90;;;;;;4996344;28;20406;-67
2021/08/10 10:19:20;;;;;;;3.90;2.22;;;23.90;99.90;;;;;;5014242;28;20034;-67
2021/08/10 10:21:53;;;;;;;3.60;2.05;;;24.00;99.90;;;;;;5014068;28;20149;-67
2021/08/10 10:24:21;;;;;;;3.42;1.92;;;24.00;99.90;;;;;;5013875;28;20034;-67
2021/08/10 10:27:14;;;;;;;6.10;2.03;;;24.00;99.90;;;;;;5014273;28;20140;-67
2021/08/10 10:29:41;;;;;;;3.15;1.85;;;23.90;99.90;;;;;;5029138;28;20045;-67
2021/08/10 10:32:07;;;;;;;5.25;2.47;;;24.00;99.90;;;;;;5032812;28;20478;-67
2021/08/10 10:34:35;;;;;;;3.50;2.33;;;24.00;99.90;;;;;;5032568;28;20180;-67
2021/08/10 10:37:02;;;;;;;3.55;2.25;;;24.00;99.90;;;;;;5031172;28;20026;-67
2021/08/10 10:39:30;;;;;;;2.50;1.85;;;23.90;99.90;;;;;;5033257;28;20048;-67
2021/08/10 10:41:59;;;;;;;5.05;2.10;;;23.90;99.90;;;;;;5032569;28;20025;-67
2021/08/10 10:44:37;;;;;;;2.35;1.77;;;24.00;99.90;;;;;;5033177;28;20142;-67
2021/08/10 10:47:24;;;;;;;3.30;2.00;;;24.10;99.90;;;;;;5032952;28;20013;-67
2021/08/10 10:49:56;;;;;;;3.67;1.90;;;24.10;99.90;;;;;;5033005;28;20029;-67
2021/08/10 10:52:22;;;;;;;3.47;1.63;;;24.10;99.90;;;;;;5033047;28;20029;-71
2021/08/10 10:54:48;;;;;;;3.65;2.10;;;23.80;99.90;;;;;;5033330;28;20101;-68
2021/08/10 10:57:28;;;;;;;5.78;2.30;;;23.70;99.90;;;;;;5032797;28;20109;-70
2021/08/10 11:00:01;;;;;;;4.40;2.10;;;23.60;99.90;;;;;;5032732;28;20033;-69
2021/08/10 11:02:27;;;;;;;3.45;1.95;;;23.70;99.90;;;;;;5032860;28;20025;-72
2021/08/10 11:05:08;;;;;;;3.53;2.22;;;23.90;99.90;;;;;;5031650;28;20033;-72
2021/08/10 11:07:39;;;;;;;3.63;1.90;;;23.90;99.90;;;;;;5015149;28;20104;-71
2021/08/10 11:10:31;;;;;;;3.40;2.20;;;23.80;99.90;;;;;;5030589;28;20147;-71
2021/08/10 11:12:57;;;;;;;3.15;1.70;;;23.80;99.90;;;;;;5032132;28;20033;-75
2021/08/10 11:15:45;;;;;;;5.55;2.47;;;23.70;99.90;;;;;;5031915;28;20052;-72
2021/08/10 11:18:11;;;;;;;5.63;2.60;;;23.70;99.90;;;;;;5033888;28;20101;-72
2021/08/10 11:20:42;;;;;;;7.80;3.25;;;23.90;99.90;;;;;;5017153;28;20052;-71
2021/08/10 11:23:24;;;;;;;6.07;3.10;;;23.90;99.90;;;;;;5040967;28;20022;-74
2021/08/10 11:26:14;;;;;;;7.43;2.95;;;23.80;99.90;;;;;;5032428;28;20423;-78
2021/08/10 11:28:50;;;;;;;5.68;2.80;;;23.70;99.90;;;;;;5018395;28;20120;-75
2021/08/10 11:31:37;;;;;;;6.50;3.38;;;23.50;99.90;;;;;;5032733;28;20052;-75
2021/08/10 11:34:24;;;;;;;7.18;3.42;;;23.60;99.90;;;;;;5032299;28;20482;-75
2021/08/10 11:37:18;;;;;;;6.13;3.00;;;23.60;99.90;;;;;;5032438;28;20125;-76
2021/08/10 11:40:22;;;;;;;7.10;3.45;;;23.60;99.90;;;;;;5032145;28;20044;-75
2021/08/10 11:42:53;;;;;;;5.93;2.90;;;23.60;99.90;;;;;;4952459;29;20031;-76
2021/08/10 11:45:19;;;;;;;5.97;3.45;;;23.70;99.90;;;;;;4952080;29;20388;-76
2021/08/10 11:47:56;;;;;;;8.23;3.90;;;23.80;99.90;;;;;;4992481;28;20068;-76
2021/08/10 11:50:26;;;;;;;6.35;3.05;;;23.80;99.90;;;;;;5032090;28;20033;-77
2021/08/10 11:52:52;;;;;;;7.10;3.25;;;23.80;99.90;;;;;;5032044;28;20048;-75
2021/08/10 11:55:18;;;;;;;8.02;3.35;;;23.70;99.90;;;;;;5025812;28;20528;-77
2021/08/10 11:57:54;;;;;;;7.55;3.53;;;23.80;99.90;;;;;;5030794;28;20037;-78
2021/08/10 12:00:20;;;;;;;7.47;3.13;;;23.80;99.90;;;;;;5031299;28;20116;-79
2021/08/10 12:02:47;;;;;;;6.00;3.38;;;23.80;99.90;;;;;;5030120;28;20014;-78
2021/08/10 12:05:13;;;;;;;7.00;3.22;;;23.90;99.90;;;;;;5022952;28;20069;-77
2021/08/10 12:08:08;;;;;;;4.72;2.83;;;23.80;99.90;;;;;;5012084;28;20049;-78
2021/08/10 12:10:35;;;;;;;5.78;3.28;;;23.80;99.90;;;;;;5018241;28;20033;-74
2021/08/10 12:13:23;;;;;;;6.00;3.40;;;23.90;99.90;;;;;;5031465;28;20497;-75
2021/08/10 12:15:50;;;;;;;4.28;2.95;;;23.90;99.90;;;;;;5025441;28;20022;-75
2021/08/10 12:18:17;;;;;;;5.75;2.92;;;24.00;99.90;;;;;;5024924;28;20577;-76
2021/08/10 12:20:55;;;;;;;4.78;2.92;;;24.10;99.90;;;;;;5030074;28;20026;-71
2021/08/10 12:23:22;;;;;;;5.22;3.10;;;24.10;99.90;;;;;;5011957;28;20034;-73
2021/08/10 12:25:48;;;;;;;6.28;3.30;;;24.10;99.90;;;;;;5020655;28;20433;-74
2021/08/10 12:28:13;;;;;;;6.35;3.13;;;24.10;99.90;;;;;;5031221;28;20067;-75
2021/08/10 12:30:42;;;;;;;4.07;3.00;;;24.10;99.90;;;;;;5031226;28;20033;-75
2021/08/10 12:33:17;;;;;;;5.68;3.22;;;24.10;99.90;;;;;;5028453;28;20087;-74
2021/08/10 12:36:09;;;;;;;4.30;3.00;;;24.20;99.90;;;;;;5012981;28;20030;-74
2021/08/10 12:38:36;;;;;;;3.80;3.00;;;24.20;99.90;;;;;;5026976;28;20042;-73
2021/08/10 12:41:03;;;;;;;4.45;2.83;;;24.20;99.90;;;;;;5036234;28;20100;-75
2021/08/10 12:43:29;;;;;;;4.32;3.10;;;24.20;99.90;;;;;;5037167;28;20021;-72
2021/08/10 12:45:55;;;;;;;7.15;3.30;;;24.30;99.90;;;;;;5028772;28;20053;-75
2021/08/10 12:48:32;;;;;;;4.75;3.33;;;24.30;99.90;;;;;;5034164;28;20064;-75
2021/08/10 12:51:04;;;;;;;4.90;3.20;;;24.30;99.90;;;;;;5037742;28;20026;-74
2021/08/10 12:53:35;;;;;;;5.13;3.00;;;24.30;99.90;;;;;;5037099;28;20029;-75
2021/08/10 12:56:03;;;;;;;5.28;2.90;;;24.40;99.90;;;;;;5020521;28;20080;-75
2021/08/10 12:58:30;;;;;;;3.30;2.90;;;24.40;99.90;;;;;;5022013;28;20021;-76